createdAt,value
2019-03-10T00:00:28.144Z,77.50
2019-03-10T00:02:56.610Z,77.40
2019-03-10T00:05:25.149Z,77.50
2019-03-10T00:07:53.711Z,77.50
2019-03-10T00:10:22.224Z,77.50
2019-03-10T00:12:50.783Z,77.50
2019-03-10T00:15:19.327Z,77.50
2019-03-10T00:17:47.723Z,77.60
2019-03-10T00:20:16.169Z,77.60
2019-03-10T00:22:44.727Z,77.40
2019-03-10T00:25:13.320Z,77.40
2019-03-10T00:27:41.829Z,77.30
2019-03-10T00:30:15.766Z,77.40
2019-03-10T00:32:44.169Z,77.20
2019-03-10T00:35:12.745Z,77.30
2019-03-10T00:37:41.174Z,77.30
2019-03-10T00:40:32.102Z,77.30
2019-03-10T00:43:22.733Z,77.40
2019-03-10T00:46:27.296Z,77.40
2019-03-10T00:49:31.478Z,77.80
2019-03-10T00:52:21.132Z,78.00
2019-03-10T00:54:49.538Z,78.30
2019-03-10T00:57:18.051Z,78.60
2019-03-10T00:59:46.555Z,78.70
2019-03-10T01:02:15.128Z,78.80
2019-03-10T01:04:43.548Z,78.70
2019-03-10T01:07:12.062Z,78.70
2019-03-10T01:09:40.536Z,78.80
2019-03-10T01:12:09.332Z,79.00
2019-03-10T01:14:37.743Z,79.30
2019-03-10T01:17:06.272Z,79.60
2019-03-10T01:19:36.131Z,79.60
2019-03-10T01:22:04.657Z,80.00
2019-03-10T01:24:33.080Z,80.20
2019-03-10T01:27:01.553Z,80.50
2019-03-10T01:29:29.983Z,80.50
2019-03-10T01:32:23.777Z,80.60
2019-03-10T01:35:04.144Z,81.00
2019-03-10T01:37:32.564Z,81.10
2019-03-10T01:40:01.020Z,81.20
2019-03-10T01:42:29.448Z,82.50
2019-03-10T01:44:57.861Z,82.10
2019-03-10T01:47:26.276Z,82.30
2019-03-10T01:49:54.730Z,82.40
2019-03-10T01:52:23.208Z,82.60
2019-03-10T01:54:51.655Z,82.50
2019-03-10T01:57:20.073Z,82.80
2019-03-10T01:59:48.513Z,82.80
2019-03-10T02:02:25.320Z,83.00
2019-03-10T02:04:47.102Z,83.00
2019-03-10T02:07:15.519Z,83.10
2019-03-10T02:09:43.952Z,83.40
2019-03-10T02:12:12.361Z,83.70
2019-03-10T02:14:40.860Z,83.90
2019-03-10T02:17:09.297Z,83.90
2019-03-10T02:19:37.736Z,84.00
2019-03-10T02:22:06.146Z,84.00
2019-03-10T02:24:34.730Z,84.10
2019-03-10T02:27:03.153Z,84.10
2019-03-10T02:29:31.587Z,84.30
2019-03-10T02:32:00.080Z,84.30
2019-03-10T02:34:28.529Z,84.40
2019-03-10T02:36:56.937Z,84.50
2019-03-10T02:39:25.373Z,84.60
2019-03-10T02:41:53.809Z,84.60
2019-03-10T02:44:22.331Z,84.70
2019-03-10T02:46:50.746Z,84.60
2019-03-10T02:49:19.193Z,84.80
2019-03-10T02:51:47.633Z,84.80
2019-03-10T02:54:16.058Z,84.80
2019-03-10T02:56:44.565Z,84.70
2019-03-10T02:59:13.163Z,84.70
2019-03-10T03:01:41.582Z,84.50
2019-03-10T03:04:10.013Z,84.50
2019-03-10T03:06:38.541Z,84.60
2019-03-10T03:09:07.016Z,84.70
2019-03-10T03:11:35.520Z,84.60
2019-03-10T03:14:04.013Z,84.60
2019-03-10T03:16:32.467Z,84.60
2019-03-10T03:19:00.893Z,84.80
2019-03-10T03:21:42.376Z,85.00
2019-03-10T03:23:59.540Z,85.20
2019-03-10T03:26:28.040Z,85.60
2019-03-10T03:28:56.445Z,86.00
2019-03-10T03:31:25.038Z,86.20
2019-03-10T03:33:53.458Z,86.80
2019-03-10T03:36:30.110Z,87.20
2019-03-10T03:39:10.609Z,87.30
2019-03-10T03:41:39.131Z,87.10
2019-03-10T03:44:07.604Z,87.10
2019-03-10T03:46:36.016Z,87.50
2019-03-10T03:49:04.524Z,87.00
2019-03-10T03:51:33.121Z,87.20
2019-03-10T03:54:01.582Z,88.20
2019-03-10T03:56:29.982Z,86.70
2019-03-10T03:58:58.486Z,86.40
2019-03-10T04:01:28.574Z,86.40
2019-03-10T04:03:57.097Z,87.00
2019-03-10T04:06:25.505Z,86.70
2019-03-10T04:08:53.929Z,87.10
2019-03-10T04:11:22.419Z,86.50
2019-03-10T04:13:51.060Z,87.30
2019-03-10T04:16:19.565Z,87.80
2019-03-10T04:18:48.021Z,88.60
2019-03-10T04:21:16.432Z,89.30
2019-03-10T04:23:44.975Z,89.40
2019-03-10T04:26:13.470Z,90.20
2019-03-10T04:28:42.045Z,90.20
2019-03-10T04:31:10.489Z,90.50
2019-03-10T04:33:38.969Z,90.50
2019-03-10T04:36:07.386Z,90.90
2019-03-10T04:38:35.815Z,91.10
2019-03-10T04:41:04.299Z,91.10
2019-03-10T04:43:32.765Z,91.30
2019-03-10T04:46:01.239Z,91.40
2019-03-10T04:48:29.659Z,91.50
2019-03-10T04:50:58.083Z,91.60
2019-03-10T04:53:26.510Z,91.80
2019-03-10T04:56:08.396Z,91.90
2019-03-10T04:58:38.537Z,92.10
2019-03-10T05:01:06.989Z,92.40
2019-03-10T05:03:35.402Z,92.40
2019-03-10T05:06:03.904Z,92.60
2019-03-10T05:08:32.388Z,92.80
2019-03-10T05:11:00.832Z,92.80
2019-03-10T05:13:29.234Z,92.70
2019-03-10T05:15:57.666Z,92.80
2019-03-10T05:18:26.091Z,92.90
2019-03-10T05:20:54.505Z,92.80
2019-03-10T05:23:30.965Z,92.90
2019-03-10T05:25:59.825Z,92.90
2019-03-10T05:28:30.071Z,93.10
2019-03-10T05:30:58.593Z,93.00
2019-03-10T05:33:27.162Z,93.10
2019-03-10T05:35:55.623Z,93.20
2019-03-10T05:38:24.093Z,93.40
2019-03-10T05:40:52.581Z,93.60
2019-03-10T05:43:20.990Z,93.60
2019-03-10T05:45:49.421Z,93.50
2019-03-10T05:48:17.836Z,93.60
2019-03-10T05:50:46.268Z,93.60
2019-03-10T05:53:14.682Z,93.70
2019-03-10T05:55:43.122Z,93.50
2019-03-10T05:58:11.533Z,93.50
2019-03-10T06:00:43.067Z,93.50
2019-03-10T06:03:10.164Z,93.60
2019-03-10T06:05:38.593Z,93.80
2019-03-10T06:08:07.012Z,93.70
2019-03-10T06:10:35.436Z,94.00
2019-03-10T06:13:03.984Z,94.10
2019-03-10T06:15:32.497Z,94.20
2019-03-10T06:18:00.922Z,94.00
2019-03-10T06:20:29.365Z,94.20
2019-03-10T06:22:57.842Z,94.20
2019-03-10T06:25:26.250Z,94.50
2019-03-10T06:27:54.684Z,94.70
2019-03-10T06:30:23.109Z,94.80
2019-03-10T06:32:51.533Z,95.30
2019-03-10T06:35:19.944Z,95.70
2019-03-10T06:37:48.391Z,95.80
2019-03-10T06:40:16.804Z,96.00
2019-03-10T06:42:45.249Z,96.10
2019-03-10T06:45:13.661Z,96.40
2019-03-10T06:47:42.091Z,96.60
2019-03-10T06:50:12.434Z,96.80
2019-03-10T06:52:41.068Z,96.90
2019-03-10T06:55:09.579Z,97.10
2019-03-10T06:57:38.005Z,97.40
2019-03-10T07:00:09.744Z,97.70
2019-03-10T07:02:38.171Z,97.90
2019-03-10T07:05:08.844Z,98.20
2019-03-10T07:07:37.261Z,98.40
2019-03-10T07:10:13.942Z,98.70
2019-03-10T07:12:42.439Z,98.90
2019-03-10T07:15:12.419Z,99.20
2019-03-10T07:17:40.898Z,99.50
2019-03-10T07:20:19.328Z,99.90
2019-03-10T07:22:47.758Z,99.90
2019-03-10T07:25:16.207Z,99.90
2019-03-10T07:27:51.953Z,99.90
2019-03-10T07:30:22.120Z,99.90
2019-03-10T07:32:55.197Z,99.90
2019-03-10T07:35:25.261Z,99.90
2019-03-10T07:37:55.333Z,99.90
2019-03-10T07:40:28.437Z,99.90
2019-03-10T07:42:58.507Z,99.90
2019-03-10T07:45:34.283Z,99.90
2019-03-10T07:48:07.007Z,99.90
2019-03-10T07:50:54.999Z,99.90
2019-03-10T07:53:27.881Z,99.90
2019-03-10T07:56:13.138Z,99.90
2019-03-10T07:58:48.709Z,99.90
2019-03-10T08:01:24.564Z,99.90
2019-03-10T08:04:09.275Z,99.90
2019-03-10T08:06:42.073Z,99.90
2019-03-10T08:09:17.848Z,99.90
2019-03-10T08:12:03.991Z,99.90
2019-03-10T08:14:34.049Z,99.90
2019-03-10T08:17:09.927Z,99.90
2019-03-10T08:19:46.047Z,99.90
2019-03-10T08:22:16.144Z,99.90
2019-03-10T08:24:48.917Z,99.90
2019-03-10T08:27:33.864Z,99.90
2019-03-10T08:30:04.035Z,99.90
2019-03-10T08:32:40.124Z,99.90
2019-03-10T08:35:22.287Z,99.90
2019-03-10T08:38:04.479Z,99.90
2019-03-10T08:40:34.536Z,99.90
2019-03-10T08:43:04.644Z,99.90
2019-03-10T08:45:40.664Z,99.90
2019-03-10T08:48:10.737Z,99.90
2019-03-10T08:50:40.813Z,99.90
2019-03-10T08:53:10.889Z,99.90
2019-03-10T08:55:56.971Z,99.90
2019-03-10T08:58:35.877Z,99.90
2019-03-10T09:01:19.439Z,99.90
2019-03-10T09:04:05.624Z,99.90
2019-03-10T09:06:50.519Z,99.90
2019-03-10T09:09:35.392Z,99.90
2019-03-10T09:12:14.536Z,99.90
2019-03-10T09:14:50.640Z,99.90
2019-03-10T09:17:36.512Z,99.90
2019-03-10T09:20:24.433Z,99.90
2019-03-10T09:23:09.508Z,99.90
2019-03-10T09:25:51.228Z,99.90
2019-03-10T09:28:21.360Z,99.90
2019-03-10T09:30:57.072Z,99.90
2019-03-10T09:33:29.766Z,99.90
2019-03-10T09:36:12.099Z,99.90
2019-03-10T09:38:47.974Z,99.90
2019-03-10T09:41:21.023Z,99.90
2019-03-10T09:44:03.832Z,99.90
2019-03-10T09:46:50.130Z,99.90
2019-03-10T09:49:26.006Z,99.90
2019-03-10T09:52:01.671Z,99.90
2019-03-10T09:54:34.277Z,99.90
2019-03-10T09:57:04.371Z,99.90
2019-03-10T09:59:34.432Z,99.90
2019-03-10T10:02:04.527Z,99.90
2019-03-10T10:04:37.574Z,99.90
2019-03-10T10:07:16.683Z,99.90
2019-03-10T10:09:58.384Z,99.90
2019-03-10T10:12:37.305Z,99.90
2019-03-10T10:15:16.217Z,99.90
2019-03-10T10:17:46.318Z,99.90
2019-03-10T10:20:19.033Z,99.90
2019-03-10T10:22:52.082Z,99.90
2019-03-10T10:25:22.133Z,99.90
2019-03-10T10:27:58.169Z,99.90
2019-03-10T10:30:37.024Z,99.90
2019-03-10T10:33:09.890Z,99.90
2019-03-10T10:35:48.830Z,99.90
2019-03-10T10:38:28.014Z,99.90
2019-03-10T10:41:01.069Z,99.90
2019-03-10T10:43:31.292Z,99.90
2019-03-10T10:46:01.732Z,99.90
2019-03-10T10:48:31.997Z,99.90
2019-03-10T10:51:02.152Z,99.90
2019-03-10T10:53:44.010Z,99.90
2019-03-10T10:56:23.093Z,99.90
2019-03-10T10:58:53.218Z,99.90
2019-03-10T11:01:25.776Z,99.90
2019-03-10T11:04:01.787Z,99.90
2019-03-10T11:06:37.779Z,99.90
2019-03-10T11:09:18.584Z,99.90
2019-03-10T11:11:48.727Z,99.90
2019-03-10T11:14:34.577Z,99.90
2019-03-10T11:17:13.742Z,99.90
2019-03-10T11:20:01.928Z,99.90
2019-03-10T11:22:41.182Z,99.90
2019-03-10T11:25:14.149Z,99.90
2019-03-10T11:27:47.057Z,99.90
2019-03-10T11:30:17.294Z,99.90
2019-03-10T11:32:50.164Z,99.90
2019-03-10T11:35:26.097Z,99.90
2019-03-10T11:38:07.955Z,99.90
2019-03-10T11:40:41.144Z,96.40
2019-03-10T11:43:11.282Z,95.30
2019-03-10T11:45:44.385Z,94.90
2019-03-10T11:48:30.193Z,93.60
2019-03-10T11:51:00.378Z,91.80
2019-03-10T11:53:36.261Z,91.60
2019-03-10T11:56:06.506Z,90.70
2019-03-10T11:58:36.656Z,89.20
2019-03-10T12:01:19.044Z,88.30
2019-03-10T12:03:54.875Z,86.20
2019-03-10T12:06:34.152Z,85.30
2019-03-10T12:09:10.224Z,84.40
2019-03-10T12:11:38.774Z,83.00
2019-03-10T12:14:07.319Z,83.30
2019-03-10T12:16:35.817Z,81.90
2019-03-10T12:19:06.247Z,83.40
2019-03-10T12:21:34.981Z,84.80
2019-03-10T12:24:03.574Z,83.10
2019-03-10T12:26:32.127Z,81.60
2019-03-10T12:29:00.784Z,81.90
2019-03-10T12:31:29.389Z,80.80
2019-03-10T12:33:57.963Z,76.70
2019-03-10T12:36:26.445Z,73.90
2019-03-10T12:38:55.054Z,74.20
2019-03-10T12:41:23.544Z,70.80
2019-03-10T12:43:51.970Z,70.10
2019-03-10T12:46:20.431Z,70.80
2019-03-10T12:48:48.983Z,69.50
2019-03-10T12:51:17.486Z,68.80
2019-03-10T12:53:46.114Z,68.40
2019-03-10T12:56:14.943Z,69.00
2019-03-10T12:58:43.542Z,68.90
2019-03-10T13:01:12.024Z,67.60
2019-03-10T13:03:40.520Z,67.50
2019-03-10T13:06:08.984Z,66.80
2019-03-10T13:08:37.537Z,65.60
2019-03-10T13:11:06.309Z,63.70
2019-03-10T13:13:34.908Z,62.20
2019-03-10T13:16:03.432Z,61.60
2019-03-10T13:18:31.872Z,59.40
2019-03-10T13:21:00.303Z,55.60
2019-03-10T13:23:28.784Z,53.70
2019-03-10T13:25:57.202Z,52.80
2019-03-10T13:28:25.891Z,52.90
2019-03-10T13:30:54.415Z,52.80
2019-03-10T13:33:22.870Z,52.90
2019-03-10T13:35:51.400Z,52.10
2019-03-10T13:38:19.969Z,52.40
2019-03-10T13:40:48.509Z,52.50
2019-03-10T13:43:18.159Z,52.50
2019-03-10T13:45:46.679Z,52.40
2019-03-10T13:48:15.145Z,51.20
2019-03-10T13:50:43.585Z,50.70
2019-03-10T13:53:12.005Z,50.40
2019-03-10T13:55:40.495Z,50.90
2019-03-10T13:58:09.053Z,50.50
2019-03-10T14:00:37.661Z,50.80
2019-03-10T14:03:06.174Z,51.10
2019-03-10T14:05:34.805Z,51.30
2019-03-10T14:08:03.228Z,51.10
2019-03-10T14:10:31.709Z,51.40
2019-03-10T14:13:00.124Z,52.20
2019-03-10T14:15:28.660Z,52.00
2019-03-10T14:17:57.144Z,52.50
2019-03-10T14:20:25.601Z,52.10
2019-03-10T14:22:54.077Z,51.80
2019-03-10T14:25:22.642Z,51.30
2019-03-10T14:27:51.144Z,50.80
2019-03-10T14:30:20.441Z,50.80
2019-03-10T14:32:48.875Z,49.90
2019-03-10T14:35:17.507Z,49.60
2019-03-10T14:37:46.095Z,49.60
2019-03-10T14:40:19.217Z,49.40
2019-03-10T14:42:47.820Z,48.50
2019-03-10T14:45:17.383Z,49.50
2019-03-10T14:47:45.958Z,49.80
2019-03-10T14:50:18.279Z,49.00
2019-03-10T14:52:46.978Z,48.50
2019-03-10T14:55:19.588Z,48.20
2019-03-10T14:57:48.217Z,48.30
2019-03-10T15:00:27.133Z,47.60
2019-03-10T15:02:55.912Z,48.50
2019-03-10T15:05:24.499Z,49.20
2019-03-10T15:07:53.168Z,49.60
2019-03-10T15:10:21.799Z,47.70
2019-03-10T15:12:50.461Z,48.40
2019-03-10T15:15:22.771Z,48.00
2019-03-10T15:17:50.093Z,46.20
2019-03-10T15:20:21.308Z,45.20
2019-03-10T15:22:49.126Z,43.40
2019-03-10T15:25:19.870Z,43.20
2019-03-10T15:27:48.535Z,43.50
2019-03-10T15:30:20.085Z,43.70
2019-03-10T15:32:48.675Z,44.50
2019-03-10T15:35:17.179Z,45.00
2019-03-10T15:37:45.765Z,45.50
2019-03-10T15:40:18.252Z,45.80
2019-03-10T15:42:46.839Z,46.00
2019-03-10T15:45:17.279Z,46.40
2019-03-10T15:47:45.813Z,46.70
2019-03-10T15:50:22.875Z,47.70
2019-03-10T15:52:51.309Z,47.80
2019-03-10T15:55:19.785Z,48.10
2019-03-10T15:57:50.470Z,48.70
2019-03-10T16:00:21.411Z,49.60
2019-03-10T16:02:49.829Z,50.20
2019-03-10T16:05:18.365Z,49.70
2019-03-10T16:07:46.801Z,49.70
2019-03-10T16:10:15.818Z,50.00
2019-03-10T16:12:44.441Z,50.60
2019-03-10T16:15:15.642Z,51.40
2019-03-10T16:17:45.903Z,51.30
2019-03-10T16:20:15.288Z,51.10
2019-03-10T16:22:43.842Z,51.30
2019-03-10T16:25:14.733Z,49.60
2019-03-10T16:27:43.329Z,49.20
2019-03-10T16:30:19.020Z,48.50
2019-03-10T16:32:47.610Z,47.30
2019-03-10T16:35:16.314Z,47.20
2019-03-10T16:37:44.904Z,46.30
2019-03-10T16:40:18.873Z,46.20
2019-03-10T16:42:47.462Z,46.10
2019-03-10T16:45:18.557Z,46.30
2019-03-10T16:47:47.183Z,46.30
2019-03-10T16:50:23.712Z,46.40
2019-03-10T16:52:52.521Z,46.60
2019-03-10T16:55:21.013Z,45.40
2019-03-10T16:57:49.565Z,44.50
2019-03-10T17:00:20.301Z,44.20
2019-03-10T17:02:49.989Z,43.70
2019-03-10T17:05:19.318Z,44.00
2019-03-10T17:07:47.987Z,43.50
2019-03-10T17:10:18.689Z,42.70
2019-03-10T17:12:47.380Z,43.20
2019-03-10T17:15:18.916Z,42.20
2019-03-10T17:17:47.651Z,41.90
2019-03-10T17:20:17.311Z,42.40
2019-03-10T17:22:45.922Z,42.40
2019-03-10T17:25:17.469Z,43.00
2019-03-10T17:27:46.119Z,42.90
2019-03-10T17:30:17.678Z,43.10
2019-03-10T17:32:46.482Z,43.30
2019-03-10T17:35:16.138Z,43.60
2019-03-10T17:37:44.620Z,43.70
2019-03-10T17:40:20.258Z,44.00
2019-03-10T17:42:48.910Z,44.50
2019-03-10T17:45:21.079Z,44.70
2019-03-10T17:47:49.577Z,45.00
2019-03-10T17:50:18.917Z,45.40
2019-03-10T17:52:47.954Z,45.50
2019-03-10T17:55:18.675Z,46.00
2019-03-10T17:57:47.160Z,46.40
2019-03-10T18:00:18.594Z,46.50
2019-03-10T18:02:47.121Z,46.70
2019-03-10T18:05:15.889Z,47.10
2019-03-10T18:07:44.449Z,47.20
2019-03-10T18:10:17.243Z,47.50
2019-03-10T18:12:45.822Z,47.70
2019-03-10T18:15:15.645Z,48.00
2019-03-10T18:17:44.229Z,48.40
2019-03-10T18:20:15.143Z,48.90
2019-03-10T18:22:43.608Z,50.40
2019-03-10T18:25:12.904Z,53.20
2019-03-10T18:27:41.413Z,53.20
2019-03-10T18:30:29.289Z,53.80
2019-03-10T18:32:57.805Z,54.50
2019-03-10T18:35:26.286Z,55.00
2019-03-10T18:37:54.750Z,54.80
2019-03-10T18:40:25.156Z,54.90
2019-03-10T18:42:53.571Z,55.50
2019-03-10T18:45:22.383Z,58.40
2019-03-10T18:47:50.914Z,66.50
2019-03-10T18:50:20.505Z,66.50
2019-03-10T18:52:49.284Z,66.80
2019-03-10T18:55:18.474Z,67.10
2019-03-10T18:57:47.032Z,64.90
2019-03-10T19:00:26.817Z,65.70
2019-03-10T19:02:55.575Z,64.50
2019-03-10T19:05:24.196Z,65.30
2019-03-10T19:07:52.866Z,65.40
2019-03-10T19:10:21.389Z,65.50
2019-03-10T19:12:49.870Z,65.60
2019-03-10T19:15:20.860Z,65.10
2019-03-10T19:17:49.454Z,65.30
2019-03-10T19:20:18.005Z,66.20
2019-03-10T19:22:46.652Z,65.70
2019-03-10T19:25:15.892Z,66.00
2019-03-10T19:27:44.768Z,66.40
2019-03-10T19:30:21.184Z,66.50
2019-03-10T19:32:49.941Z,66.10
2019-03-10T19:35:18.560Z,65.20
2019-03-10T19:37:47.313Z,65.80
2019-03-10T19:40:21.099Z,64.00
2019-03-10T19:42:49.695Z,62.70
2019-03-10T19:45:19.377Z,61.30
2019-03-10T19:47:47.814Z,58.10
2019-03-10T19:50:21.479Z,56.80
2019-03-10T19:52:50.211Z,56.60
2019-03-10T19:55:18.745Z,55.80
2019-03-10T19:57:47.246Z,55.50
2019-03-10T20:00:19.663Z,54.10
2019-03-10T20:02:48.367Z,54.50
2019-03-10T20:05:17.219Z,54.00
2019-03-10T20:07:45.891Z,54.70
2019-03-10T20:10:16.648Z,54.40
2019-03-10T20:12:45.285Z,54.70
2019-03-10T20:15:16.231Z,54.60
2019-03-10T20:17:44.819Z,54.90
2019-03-10T20:20:18.909Z,54.60
2019-03-10T20:22:47.422Z,53.80
2019-03-10T20:25:16.369Z,54.20
2019-03-10T20:27:45.225Z,54.40
2019-03-10T20:30:22.462Z,54.20
2019-03-10T20:32:52.393Z,54.40
2019-03-10T20:35:21.140Z,54.30
2019-03-10T20:37:49.676Z,54.60
2019-03-10T20:40:20.239Z,54.40
2019-03-10T20:42:48.788Z,54.20
2019-03-10T20:45:17.448Z,53.80
2019-03-10T20:47:46.028Z,54.00
2019-03-10T20:50:18.380Z,54.10
2019-03-10T20:52:46.871Z,54.10
2019-03-10T20:55:15.683Z,54.10
2019-03-10T20:57:44.620Z,54.30
2019-03-10T21:00:15.655Z,54.20
2019-03-10T21:02:44.230Z,55.10
2019-03-10T21:05:12.989Z,54.30
2019-03-10T21:07:41.705Z,54.20
2019-03-10T21:10:15.257Z,54.30
2019-03-10T21:12:43.765Z,54.00
2019-03-10T21:15:21.898Z,54.10
2019-03-10T21:17:50.437Z,53.30
2019-03-10T21:20:19.936Z,53.50
2019-03-10T21:22:48.487Z,53.40
2019-03-10T21:25:22.048Z,53.40
2019-03-10T21:27:50.582Z,52.50
2019-03-10T21:30:26.613Z,51.30
2019-03-10T21:32:55.139Z,51.30
2019-03-10T21:35:23.661Z,50.70
2019-03-10T21:37:52.226Z,51.10
2019-03-10T21:40:23.073Z,51.00
2019-03-10T21:42:51.767Z,50.40
2019-03-10T21:45:20.267Z,50.50
2019-03-10T21:47:48.755Z,50.90
2019-03-10T21:50:18.455Z,51.60
2019-03-10T21:52:47.065Z,50.90
2019-03-10T21:55:16.596Z,50.60
2019-03-10T21:57:45.129Z,50.90
2019-03-10T22:00:18.693Z,50.70
2019-03-10T22:02:47.297Z,50.90
2019-03-10T22:05:16.609Z,51.10
2019-03-10T22:07:45.582Z,50.90
2019-03-10T22:10:26.340Z,51.00
2019-03-10T22:12:46.659Z,50.70
2019-03-10T22:15:17.099Z,50.60
2019-03-10T22:17:45.735Z,50.80
2019-03-10T22:20:20.566Z,50.80
2019-03-10T22:22:50.169Z,50.70
2019-03-10T22:25:18.833Z,50.60
2019-03-10T22:27:47.269Z,50.80
2019-03-10T22:30:20.663Z,51.10
2019-03-10T22:32:49.252Z,51.00
2019-03-10T22:35:17.754Z,50.80
2019-03-10T22:37:46.271Z,50.80
2019-03-10T22:40:16.814Z,51.00
2019-03-10T22:42:45.360Z,51.30
2019-03-10T22:45:15.906Z,51.50
2019-03-10T22:47:44.406Z,51.50
2019-03-10T22:50:16.180Z,51.70
2019-03-10T22:52:45.459Z,51.70
2019-03-10T22:55:14.839Z,51.90
2019-03-10T22:57:43.473Z,52.30
2019-03-10T23:00:17.340Z,52.60
2019-03-10T23:02:45.998Z,52.90
2019-03-10T23:05:14.581Z,53.10
2019-03-10T23:07:43.077Z,53.50
2019-03-10T23:10:14.203Z,53.90
2019-03-10T23:12:42.754Z,54.20
2019-03-10T23:15:12.865Z,54.60
2019-03-10T23:17:41.352Z,54.70
2019-03-10T23:20:12.592Z,54.90
2019-03-10T23:22:41.080Z,55.10
2019-03-10T23:25:09.766Z,55.20
2019-03-10T23:27:38.251Z,55.20
2019-03-10T23:30:12.838Z,55.50
2019-03-10T23:32:41.306Z,55.40
2019-03-10T23:35:09.971Z,55.10
2019-03-10T23:37:38.370Z,55.30
2019-03-10T23:40:09.901Z,55.40
2019-03-10T23:42:38.409Z,55.60
2019-03-10T23:45:09.553Z,55.20
2019-03-10T23:47:38.061Z,55.30
2019-03-10T23:50:08.340Z,55.60
2019-03-10T23:52:36.787Z,54.70
2019-03-10T23:55:07.185Z,54.50
2019-03-10T23:57:35.632Z,54.10
